createdAt,value
2022-08-09T00:00:13.834Z,18.50
2022-08-09T00:02:47.343Z,18.60
2022-08-09T00:06:18.224Z,18.60
2022-08-09T00:08:04.106Z,18.60
2022-08-09T00:10:37.772Z,18.70
2022-08-09T00:13:17.263Z,18.70
2022-08-09T00:15:58.709Z,18.70
2022-08-09T00:18:29.292Z,18.70
2022-08-09T00:20:56.020Z,18.70
2022-08-09T00:23:54.570Z,18.70
2022-08-09T00:26:11.318Z,18.70
2022-08-09T00:28:39.630Z,18.60
2022-08-09T00:31:30.392Z,18.60
2022-08-09T00:33:54.643Z,18.60
2022-08-09T00:36:29.810Z,18.60
2022-08-09T00:38:58.090Z,18.60
2022-08-09T00:44:19.576Z,18.60
2022-08-09T00:44:24.719Z,18.60
2022-08-09T00:47:05.447Z,18.70
2022-08-09T00:49:34.848Z,18.70
2022-08-09T00:52:15.970Z,18.70
2022-08-09T00:54:45.730Z,18.70
2022-08-09T00:57:12.741Z,18.70
2022-08-09T00:59:46.557Z,18.80
2022-08-09T01:02:22.034Z,18.80
2022-08-09T01:05:21.782Z,18.80
2022-08-09T01:08:05.019Z,18.80
2022-08-09T01:10:43.797Z,18.70
2022-08-09T01:13:42.021Z,18.70
2022-08-09T01:16:23.491Z,18.70
2022-08-09T01:19:02.118Z,18.60
2022-08-09T01:21:58.366Z,18.70
2022-08-09T01:25:05.293Z,18.60
2022-08-09T01:27:36.498Z,18.60
2022-08-09T01:30:08.305Z,18.60
2022-08-09T01:32:57.067Z,18.60
2022-08-09T01:35:38.725Z,18.60
2022-08-09T01:38:15.467Z,18.60
2022-08-09T01:40:52.641Z,18.60
2022-08-09T01:43:32.332Z,18.60
2022-08-09T01:46:26.493Z,18.70
2022-08-09T01:48:59.887Z,18.60
2022-08-09T01:51:32.522Z,18.60
2022-08-09T01:54:02.834Z,18.60
2022-08-09T01:56:32.260Z,18.60
2022-08-09T01:59:01.979Z,18.50
2022-08-09T02:02:00.272Z,18.50
2022-08-09T02:04:20.501Z,18.40
2022-08-09T02:07:17.884Z,18.40
2022-08-09T02:10:07.505Z,18.40
2022-08-09T02:12:36.206Z,18.40
2022-08-09T02:15:06.143Z,18.30
2022-08-09T02:18:00.057Z,18.40
2022-08-09T02:20:26.581Z,18.30
2022-08-09T02:23:07.943Z,18.40
2022-08-09T02:25:42.056Z,18.40
2022-08-09T02:28:27.330Z,18.30
2022-08-09T02:31:06.202Z,18.30
2022-08-09T02:34:06.980Z,18.30
2022-08-09T02:36:42.004Z,18.30
2022-08-09T02:39:14.391Z,18.40
2022-08-09T02:41:45.604Z,18.30
2022-08-09T02:44:30.170Z,18.40
2022-08-09T02:47:00.963Z,18.40
2022-08-09T02:49:38.478Z,18.40
2022-08-09T02:52:11.741Z,18.40
2022-08-09T02:54:54.248Z,18.40
2022-08-09T02:57:25.236Z,18.40
2022-08-09T03:00:20.784Z,18.30
2022-08-09T03:02:46.271Z,18.40
2022-08-09T03:05:25.937Z,18.40
2022-08-09T03:07:55.101Z,18.40
2022-08-09T03:10:24.005Z,18.40
2022-08-09T03:12:52.089Z,18.40
2022-08-09T03:15:20.802Z,18.40
2022-08-09T03:17:53.893Z,18.30
2022-08-09T03:20:29.458Z,18.30
2022-08-09T03:23:00.460Z,18.30
2022-08-09T03:25:58.596Z,18.30
2022-08-09T03:28:27.164Z,18.20
2022-08-09T03:30:55.512Z,18.20
2022-08-09T03:33:23.322Z,18.20
2022-08-09T03:36:12.614Z,18.20
2022-08-09T03:38:42.953Z,18.20
2022-08-09T03:41:16.318Z,18.20
2022-08-09T03:44:04.055Z,18.10
2022-08-09T03:46:31.660Z,18.10
2022-08-09T03:49:04.155Z,18.10
2022-08-09T03:51:57.431Z,18.00
2022-08-09T03:54:29.405Z,18.00
2022-08-09T03:56:58.182Z,18.10
2022-08-09T03:59:27.342Z,18.00
2022-08-09T04:02:10.338Z,18.00
2022-08-09T04:04:38.799Z,18.00
2022-08-09T04:07:06.022Z,18.00
2022-08-09T04:09:47.636Z,18.00
2022-08-09T04:12:36.286Z,18.10
2022-08-09T04:15:17.246Z,18.00
2022-08-09T04:17:50.541Z,18.00
2022-08-09T04:20:19.008Z,18.00
2022-08-09T04:22:47.387Z,18.10
2022-08-09T04:25:17.335Z,18.10
2022-08-09T04:27:49.095Z,18.10
2022-08-09T04:30:20.877Z,18.10
2022-08-09T04:32:50.174Z,18.20
2022-08-09T04:35:17.455Z,18.10
2022-08-09T04:37:48.436Z,18.20
2022-08-09T04:40:19.121Z,18.20
2022-08-09T04:42:56.839Z,18.20
2022-08-09T04:45:24.060Z,18.20
2022-08-09T04:48:00.236Z,18.20
2022-08-09T04:50:31.974Z,18.30
2022-08-09T04:53:07.749Z,18.20
2022-08-09T04:55:57.655Z,18.20
2022-08-09T04:58:25.687Z,18.20
2022-08-09T05:00:54.234Z,18.30
2022-08-09T05:03:40.613Z,18.40
2022-08-09T05:06:09.994Z,18.40
2022-08-09T05:08:38.401Z,18.40
2022-08-09T05:11:07.531Z,18.50
2022-08-09T05:13:38.589Z,18.50
2022-08-09T05:16:10.176Z,18.50
2022-08-09T05:18:58.127Z,18.50
2022-08-09T05:21:24.914Z,18.50
2022-08-09T05:24:02.035Z,18.60
2022-08-09T05:26:45.637Z,18.70
2022-08-09T05:29:21.902Z,18.70
2022-08-09T05:31:56.092Z,18.80
2022-08-09T05:34:30.936Z,18.90
2022-08-09T05:37:05.904Z,18.90
2022-08-09T05:39:43.867Z,19.10
2022-08-09T05:42:17.840Z,19.20
2022-08-09T05:44:52.528Z,19.30
2022-08-09T05:47:22.512Z,19.30
2022-08-09T05:50:30.150Z,19.40
2022-08-09T05:52:38.696Z,19.40
2022-08-09T05:55:08.770Z,19.60
2022-08-09T05:57:50.804Z,19.70
2022-08-09T06:00:26.945Z,19.70
2022-08-09T06:02:59.611Z,19.80
2022-08-09T06:05:31.255Z,20.00
2022-08-09T06:08:19.695Z,20.00
2022-08-09T06:10:52.964Z,20.10
2022-08-09T06:13:21.212Z,20.20
2022-08-09T06:15:51.554Z,20.20
2022-08-09T06:18:25.305Z,20.30
2022-08-09T06:20:58.441Z,20.30
2022-08-09T06:23:55.815Z,20.40
2022-08-09T06:26:20.108Z,20.50
2022-08-09T06:29:01.123Z,20.70
2022-08-09T06:31:40.584Z,20.80
2022-08-09T06:34:22.556Z,20.80
2022-08-09T06:36:57.359Z,21.00
2022-08-09T06:39:39.582Z,21.00
2022-08-09T06:42:14.303Z,21.10
2022-08-09T06:44:41.643Z,21.10
2022-08-09T06:47:10.562Z,21.20
2022-08-09T06:50:12.835Z,21.30
2022-08-09T06:52:25.258Z,21.30
2022-08-09T06:54:52.242Z,21.40
2022-08-09T06:57:42.749Z,21.40
2022-08-09T07:00:51.634Z,21.50
2022-08-09T07:02:57.105Z,21.60
2022-08-09T07:05:24.604Z,21.70
2022-08-09T07:08:11.160Z,21.80
2022-08-09T07:10:38.562Z,21.90
2022-08-09T07:13:27.646Z,22.00
2022-08-09T07:16:38.628Z,22.00
2022-08-09T07:18:39.517Z,22.20
2022-08-09T07:21:08.189Z,22.30
2022-08-09T07:23:36.039Z,22.40
2022-08-09T07:26:04.129Z,22.60
2022-08-09T07:28:34.633Z,22.80
2022-08-09T07:31:04.571Z,22.90
2022-08-09T07:33:53.264Z,23.30
2022-08-09T07:36:22.091Z,24.10
2022-08-09T07:38:56.752Z,24.90
2022-08-09T07:41:26.423Z,25.50
2022-08-09T07:43:56.408Z,26.10
2022-08-09T07:46:23.519Z,26.40
2022-08-09T07:48:59.526Z,26.60
2022-08-09T07:52:04.277Z,26.50
2022-08-09T07:54:14.739Z,26.20
2022-08-09T07:56:49.248Z,26.40
2022-08-09T07:59:25.737Z,26.80
2022-08-09T08:02:06.672Z,27.30
2022-08-09T08:04:36.394Z,27.50
2022-08-09T08:07:15.525Z,27.80
2022-08-09T08:09:55.131Z,28.10
2022-08-09T08:12:34.521Z,28.30
2022-08-09T08:15:01.402Z,28.60
2022-08-09T08:17:52.334Z,28.10
2022-08-09T08:20:15.459Z,27.80
2022-08-09T08:22:42.843Z,27.80
2022-08-09T08:25:13.451Z,28.20
2022-08-09T08:27:43.088Z,28.50
2022-08-09T08:30:11.573Z,28.20
2022-08-09T08:32:52.790Z,27.70
2022-08-09T08:35:22.538Z,27.40
2022-08-09T08:38:02.070Z,27.70
2022-08-09T08:40:33.113Z,28.30
2022-08-09T08:43:03.262Z,29.10
2022-08-09T08:45:51.384Z,29.70
2022-08-09T08:48:21.997Z,30.10
2022-08-09T08:50:49.465Z,30.40
2022-08-09T08:53:21.900Z,30.60
2022-08-09T08:55:49.045Z,31.00
2022-08-09T08:58:27.143Z,31.10
2022-08-09T09:00:56.924Z,31.10
2022-08-09T09:03:37.229Z,31.10
2022-08-09T09:06:06.742Z,30.40
2022-08-09T09:08:42.533Z,30.10
2022-08-09T09:11:17.217Z,30.50
2022-08-09T09:13:55.383Z,31.00
2022-08-09T09:16:30.318Z,31.00
2022-08-09T09:19:21.589Z,31.10
2022-08-09T09:22:04.194Z,31.00
2022-08-09T09:24:38.921Z,30.20
2022-08-09T09:27:08.509Z,29.70
2022-08-09T09:30:11.563Z,29.80
2022-08-09T09:32:34.450Z,30.30
2022-08-09T09:35:01.999Z,30.90
2022-08-09T09:37:31.931Z,31.20
2022-08-09T09:39:59.927Z,31.40
2022-08-09T09:42:30.924Z,31.50
2022-08-09T09:45:03.091Z,31.70
2022-08-09T09:47:30.320Z,31.70
2022-08-09T09:50:14.520Z,31.50
2022-08-09T09:52:56.829Z,31.80
2022-08-09T09:55:31.970Z,32.20
2022-08-09T09:58:19.340Z,32.50
2022-08-09T10:00:58.894Z,32.70
2022-08-09T10:03:57.565Z,32.90
2022-08-09T10:06:28.305Z,33.00
2022-08-09T10:09:02.739Z,33.20
2022-08-09T10:11:59.172Z,33.20
2022-08-09T10:14:30.745Z,33.50
2022-08-09T10:17:39.151Z,33.50
2022-08-09T10:19:58.825Z,33.80
2022-08-09T10:22:36.820Z,34.00
2022-08-09T10:25:11.050Z,34.00
2022-08-09T10:27:45.405Z,34.10
2022-08-09T10:34:07.845Z,34.20
2022-08-09T10:36:02.718Z,34.00
2022-08-09T10:38:33.765Z,33.90
2022-08-09T10:41:07.485Z,33.60
2022-08-09T10:43:50.777Z,33.40
2022-08-09T10:46:54.717Z,33.50
2022-08-09T10:49:54.242Z,32.50
2022-08-09T10:52:45.193Z,32.00
2022-08-09T10:55:22.791Z,31.10
2022-08-09T10:57:52.065Z,30.50
2022-08-09T11:00:56.906Z,30.80
2022-08-09T11:03:50.025Z,31.60
2022-08-09T11:06:21.154Z,32.00
2022-08-09T11:08:53.121Z,32.50
2022-08-09T11:11:21.787Z,33.10
2022-08-09T11:14:28.015Z,33.40
2022-08-09T11:16:56.038Z,34.20
2022-08-09T11:20:08.132Z,35.40
2022-08-09T11:22:43.326Z,36.40
2022-08-09T11:25:18.227Z,36.60
2022-08-09T11:28:05.433Z,36.70
2022-08-09T11:30:36.821Z,36.50
2022-08-09T11:33:16.996Z,36.40
2022-08-09T11:35:50.271Z,36.10
2022-08-09T11:38:33.061Z,35.90
2022-08-09T11:41:13.027Z,35.90
2022-08-09T11:43:48.656Z,35.90
2022-08-09T11:46:26.662Z,35.50
2022-08-09T11:49:05.310Z,35.40
2022-08-09T11:52:53.957Z,35.60
2022-08-09T11:55:51.520Z,35.70
2022-08-09T11:58:14.514Z,34.80
2022-08-09T12:00:55.375Z,34.90
2022-08-09T12:03:54.762Z,34.90
2022-08-09T12:06:14.902Z,34.00
2022-08-09T12:08:53.035Z,33.40
2022-08-09T12:11:22.348Z,33.20
2022-08-09T12:14:08.447Z,33.40
2022-08-09T12:16:40.445Z,32.80
2022-08-09T12:19:12.966Z,31.90
2022-08-09T12:21:50.448Z,31.30
2022-08-09T12:24:25.857Z,30.90
2022-08-09T12:29:14.151Z,30.20
2022-08-09T12:30:04.010Z,30.40
2022-08-09T12:32:41.778Z,31.50
2022-08-09T12:35:12.620Z,32.70
2022-08-09T12:37:51.558Z,33.70
2022-08-09T12:40:24.438Z,33.70
2022-08-09T12:42:52.051Z,32.20
2022-08-09T12:45:34.593Z,31.50
2022-08-09T12:48:19.954Z,31.90
2022-08-09T12:50:55.705Z,32.40
2022-08-09T12:53:37.093Z,32.40
2022-08-09T12:56:37.108Z,33.00
2022-08-09T12:59:10.912Z,33.80
2022-08-09T13:01:42.640Z,34.40
2022-08-09T13:04:36.147Z,34.50
2022-08-09T13:07:19.356Z,34.70
2022-08-09T13:09:55.608Z,33.40
2022-08-09T13:12:28.016Z,32.30
2022-08-09T13:15:07.358Z,31.30
2022-08-09T13:18:02.492Z,30.90
2022-08-09T13:20:37.794Z,30.30
2022-08-09T13:24:15.937Z,30.10
2022-08-09T13:26:05.601Z,30.10
2022-08-09T13:28:39.722Z,29.80
2022-08-09T13:32:13.513Z,29.50
2022-08-09T13:33:56.967Z,29.30
2022-08-09T13:36:41.713Z,29.40
2022-08-09T13:41:21.238Z,29.90
2022-08-09T13:42:11.024Z,29.90
2022-08-09T13:44:44.144Z,29.80
2022-08-09T13:47:29.188Z,29.80
2022-08-09T13:50:07.873Z,29.70
2022-08-09T13:52:40.417Z,29.60
2022-08-09T13:55:13.796Z,29.70
2022-08-09T13:57:44.085Z,29.70
2022-08-09T14:00:16.276Z,30.00
2022-08-09T14:03:03.464Z,30.10
2022-08-09T14:05:59.858Z,30.60
2022-08-09T14:08:19.923Z,30.50
2022-08-09T14:10:52.044Z,30.40
2022-08-09T14:13:21.825Z,30.60
2022-08-09T14:16:09.711Z,31.10
2022-08-09T14:18:37.404Z,31.80
2022-08-09T14:21:05.842Z,32.10
2022-08-09T14:23:40.457Z,32.60
2022-08-09T14:26:20.492Z,32.70
2022-08-09T14:28:47.616Z,32.30
2022-08-09T14:31:14.434Z,32.00
2022-08-09T14:33:42.218Z,31.30
2022-08-09T14:36:20.852Z,30.60
2022-08-09T14:38:52.950Z,30.60
2022-08-09T14:41:34.841Z,31.00
2022-08-09T14:44:07.483Z,31.20
2022-08-09T14:46:54.807Z,31.50
2022-08-09T14:49:26.210Z,31.70
2022-08-09T14:51:58.722Z,31.70
2022-08-09T14:54:28.357Z,31.90
2022-08-09T14:56:58.067Z,32.10
2022-08-09T14:59:28.422Z,32.20
2022-08-09T15:01:55.778Z,32.00
2022-08-09T15:04:23.445Z,32.00
2022-08-09T15:06:51.361Z,32.00
2022-08-09T15:10:03.641Z,31.60
2022-08-09T15:12:07.747Z,31.60
2022-08-09T15:14:35.348Z,31.20
2022-08-09T15:17:09.288Z,31.10
2022-08-09T15:19:37.014Z,31.10
2022-08-09T15:22:21.990Z,31.10
2022-08-09T15:24:52.798Z,30.20
2022-08-09T15:27:19.405Z,30.10
2022-08-09T15:30:55.844Z,30.00
2022-08-09T15:32:32.709Z,30.10
2022-08-09T15:35:00.956Z,30.10
2022-08-09T15:37:37.047Z,29.90
2022-08-09T15:40:11.778Z,29.70
2022-08-09T15:42:39.772Z,29.70
2022-08-09T15:45:11.126Z,29.70
2022-08-09T15:47:52.918Z,29.70
2022-08-09T15:50:29.024Z,29.70
2022-08-09T15:53:07.007Z,29.60
2022-08-09T15:56:04.295Z,29.70
2022-08-09T15:58:29.199Z,29.60
2022-08-09T16:00:56.735Z,29.50
2022-08-09T16:03:29.704Z,29.40
2022-08-09T16:06:07.096Z,29.20
2022-08-09T16:08:56.021Z,29.10
2022-08-09T16:11:22.769Z,29.00
2022-08-09T16:14:03.054Z,29.00
2022-08-09T16:16:36.918Z,28.90
2022-08-09T16:19:08.612Z,28.80
2022-08-09T16:21:36.780Z,28.50
2022-08-09T16:24:07.991Z,28.50
2022-08-09T16:26:40.513Z,28.30
2022-08-09T16:29:12.019Z,28.30
2022-08-09T16:32:20.066Z,28.00
2022-08-09T16:34:55.197Z,27.80
2022-08-09T16:37:20.310Z,27.50
2022-08-09T16:40:08.383Z,27.30
2022-08-09T16:42:50.321Z,27.30
2022-08-09T16:45:21.297Z,27.40
2022-08-09T16:48:40.668Z,27.30
2022-08-09T16:50:38.547Z,27.20
2022-08-09T16:53:05.943Z,27.00
2022-08-09T16:55:59.016Z,27.00
2022-08-09T16:58:21.045Z,26.90
2022-08-09T17:00:48.823Z,26.90
2022-08-09T17:03:22.161Z,26.80
2022-08-09T17:06:08.144Z,26.70
2022-08-09T17:08:43.401Z,26.60
2022-08-09T17:11:40.854Z,26.50
2022-08-09T17:14:26.457Z,26.40
2022-08-09T17:17:02.623Z,26.30
2022-08-09T17:19:47.423Z,26.20
2022-08-09T17:22:23.917Z,26.10
2022-08-09T17:25:10.104Z,25.90
2022-08-09T17:27:49.535Z,25.90
2022-08-09T17:30:30.772Z,25.80
2022-08-09T17:33:05.607Z,25.80
2022-08-09T17:35:56.826Z,25.70
2022-08-09T17:38:30.981Z,25.60
2022-08-09T17:41:02.912Z,25.40
2022-08-09T17:44:38.981Z,25.20
2022-08-09T17:47:00.518Z,25.10
2022-08-09T17:49:36.215Z,25.00
2022-08-09T17:52:20.688Z,24.90
2022-08-09T17:55:08.145Z,24.80
2022-08-09T17:58:03.303Z,24.70
2022-08-09T18:00:43.892Z,24.60
2022-08-09T18:03:10.851Z,24.50
2022-08-09T18:05:43.370Z,24.30
2022-08-09T18:08:11.230Z,24.30
2022-08-09T18:10:40.170Z,24.20
2022-08-09T18:13:54.406Z,24.20
2022-08-09T18:16:07.883Z,24.20
2022-08-09T18:18:43.274Z,24.10
2022-08-09T18:21:19.610Z,23.90
2022-08-09T18:24:12.308Z,23.90
2022-08-09T18:26:46.280Z,23.80
2022-08-09T18:30:42.346Z,23.80
2022-08-09T18:32:04.048Z,23.70
2022-08-09T18:34:34.935Z,23.60
2022-08-09T18:37:47.206Z,23.60
2022-08-09T18:39:57.894Z,23.60
2022-08-09T18:42:28.290Z,23.50
2022-08-09T18:44:57.048Z,23.30
2022-08-09T18:47:37.201Z,23.30
2022-08-09T18:50:08.956Z,23.20
2022-08-09T18:52:37.286Z,23.10
2022-08-09T18:55:06.132Z,23.10
2022-08-09T18:57:43.522Z,23.00
2022-08-09T19:00:19.877Z,22.90
2022-08-09T19:02:48.482Z,22.80
2022-08-09T19:05:28.161Z,22.80
2022-08-09T19:08:10.663Z,22.70
2022-08-09T19:10:41.070Z,22.50
2022-08-09T19:13:20.839Z,22.50
2022-08-09T19:15:52.185Z,22.40
2022-08-09T19:18:33.798Z,22.40
2022-08-09T19:21:09.544Z,22.40
2022-08-09T19:24:31.883Z,22.30
2022-08-09T19:26:29.441Z,22.30
2022-08-09T19:29:15.416Z,22.20
2022-08-09T19:31:46.398Z,22.10
2022-08-09T19:34:21.607Z,22.00
2022-08-09T19:36:50.971Z,21.90
2022-08-09T19:39:17.808Z,21.80
2022-08-09T19:41:48.565Z,21.80
2022-08-09T19:44:17.741Z,21.70
2022-08-09T19:46:50.775Z,21.60
2022-08-09T19:50:49.055Z,21.50
2022-08-09T19:52:08.493Z,21.40
2022-08-09T19:54:35.716Z,21.20
2022-08-09T19:57:03.027Z,21.20
2022-08-09T19:59:57.039Z,21.10
2022-08-09T20:04:08.276Z,21.00
2022-08-09T20:05:10.092Z,21.00
2022-08-09T20:07:59.716Z,20.90
2022-08-09T20:10:36.503Z,20.80
2022-08-09T20:13:05.539Z,20.70
2022-08-09T20:16:33.949Z,20.60
2022-08-09T20:18:20.264Z,20.50
2022-08-09T20:20:50.547Z,20.50
2022-08-09T20:23:19.533Z,20.50
2022-08-09T20:25:52.884Z,20.40
2022-08-09T20:28:34.289Z,20.30
2022-08-09T20:31:05.612Z,20.30
2022-08-09T20:33:39.086Z,20.30
2022-08-09T20:36:11.106Z,20.20
2022-08-09T20:39:04.314Z,20.10
2022-08-09T20:41:34.847Z,20.10
2022-08-09T20:44:06.897Z,20.00
2022-08-09T20:46:43.001Z,19.90
2022-08-09T20:49:15.985Z,19.90
2022-08-09T20:51:43.968Z,19.90
2022-08-09T20:54:16.859Z,19.90
2022-08-09T20:56:49.677Z,19.90
2022-08-09T20:59:50.344Z,19.80
2022-08-09T21:02:08.811Z,19.80
2022-08-09T21:05:54.869Z,19.70
2022-08-09T21:07:24.868Z,19.70
2022-08-09T21:10:06.032Z,19.70
2022-08-09T21:12:37.644Z,19.60
2022-08-09T21:15:05.128Z,19.50
2022-08-09T21:18:22.064Z,19.50
2022-08-09T21:20:25.361Z,19.50
2022-08-09T21:22:54.512Z,19.40
2022-08-09T21:25:54.182Z,19.40
2022-08-09T21:28:34.394Z,19.30
2022-08-09T21:31:16.326Z,19.30
2022-08-09T21:33:50.483Z,19.30
2022-08-09T21:36:19.556Z,19.30
2022-08-09T21:38:56.678Z,19.20
2022-08-09T21:42:00.214Z,19.20
2022-08-09T21:44:10.586Z,19.10
2022-08-09T21:46:37.416Z,19.00
2022-08-09T21:49:07.461Z,19.00
2022-08-09T21:51:36.372Z,18.90
2022-08-09T21:54:10.321Z,18.90
2022-08-09T21:56:44.498Z,18.90
2022-08-09T21:59:23.523Z,18.80
2022-08-09T22:02:01.068Z,18.80
2022-08-09T22:04:55.532Z,18.80
2022-08-09T22:07:35.480Z,18.70
2022-08-09T22:10:08.519Z,18.70
2022-08-09T22:12:37.347Z,18.70
2022-08-09T22:15:07.207Z,18.60
2022-08-09T22:17:46.589Z,18.60
2022-08-09T22:20:16.839Z,18.60
2022-08-09T22:22:48.862Z,18.50
2022-08-09T22:26:06.491Z,18.50
2022-08-09T22:28:06.572Z,18.50
2022-08-09T22:30:34.354Z,18.50
2022-08-09T22:33:01.642Z,18.40
2022-08-09T22:36:00.794Z,18.40
2022-08-09T22:38:16.423Z,18.40
2022-08-09T22:40:48.924Z,18.40
2022-08-09T22:44:02.541Z,18.30
2022-08-09T22:48:14.265Z,18.30
2022-08-09T22:49:01.957Z,18.30
2022-08-09T22:51:38.417Z,18.30
2022-08-09T22:54:08.106Z,18.20
2022-08-09T22:56:41.471Z,18.20
2022-08-09T22:59:58.257Z,18.20
2022-08-09T23:01:56.346Z,18.10
2022-08-09T23:04:25.410Z,18.10
2022-08-09T23:07:13.844Z,18.10
2022-08-09T23:09:41.260Z,18.00
2022-08-09T23:12:08.373Z,18.00
2022-08-09T23:14:42.411Z,18.00
2022-08-09T23:17:11.108Z,17.90
2022-08-09T23:20:00.626Z,17.90
2022-08-09T23:22:25.037Z,17.90
2022-08-09T23:24:51.773Z,17.80
2022-08-09T23:27:18.635Z,17.80
2022-08-09T23:29:45.407Z,17.80
2022-08-09T23:32:12.528Z,17.70
2022-08-09T23:34:39.565Z,17.70
2022-08-09T23:37:06.573Z,17.70
2022-08-09T23:39:33.399Z,17.70
2022-08-09T23:42:00.106Z,17.70
2022-08-09T23:44:26.779Z,17.70
2022-08-09T23:46:57.342Z,17.60
2022-08-09T23:49:25.727Z,17.60
2022-08-09T23:51:53.434Z,17.60
2022-08-09T23:54:21.014Z,17.50
2022-08-09T23:56:58.116Z,17.50
2022-08-09T23:59:25.381Z,17.40
